createdAt,value
2023-04-04T00:00:37.007Z,2.40
2023-04-04T00:03:05.430Z,2.75
2023-04-04T00:05:35.561Z,2.90
2023-04-04T00:08:03.835Z,3.10
2023-04-04T00:10:32.903Z,3.10
2023-04-04T00:13:01.361Z,3.40
2023-04-04T00:15:28.942Z,3.45
2023-04-04T00:17:57.108Z,3.42
2023-04-04T00:20:24.796Z,3.40
2023-04-04T00:22:53.794Z,3.30
2023-04-04T00:25:21.355Z,2.85
2023-04-04T00:27:49.136Z,2.80
2023-04-04T00:30:16.902Z,2.60
2023-04-04T00:32:45.438Z,2.78
2023-04-04T00:35:13.693Z,2.78
2023-04-04T00:37:41.231Z,2.70
2023-04-04T00:40:11.110Z,3.05
2023-04-04T00:42:38.707Z,3.80
2023-04-04T00:45:08.738Z,2.58
2023-04-04T00:47:37.818Z,2.60
2023-04-04T00:50:06.527Z,2.90
2023-04-04T00:52:34.056Z,2.58
2023-04-04T00:55:02.649Z,2.30
2023-04-04T00:57:31.732Z,2.97
2023-04-04T01:00:00.985Z,2.70
2023-04-04T01:02:28.578Z,2.60
2023-04-04T01:04:56.476Z,2.60
2023-04-04T01:07:24.943Z,2.72
2023-04-04T01:09:53.986Z,2.70
2023-04-04T01:12:21.786Z,2.72
2023-04-04T01:14:50.737Z,2.53
2023-04-04T01:17:21.798Z,3.05
2023-04-04T01:20:00.335Z,2.60
2023-04-04T01:22:31.862Z,2.60
2023-04-04T01:25:02.794Z,2.80
2023-04-04T01:27:32.436Z,2.75
2023-04-04T01:30:09.911Z,2.63
2023-04-04T01:32:42.860Z,2.40
2023-04-04T01:35:21.876Z,2.60
2023-04-04T01:37:56.171Z,2.65
2023-04-04T01:40:29.088Z,2.40
2023-04-04T01:42:58.933Z,2.85
2023-04-04T01:45:29.844Z,2.28
2023-04-04T01:48:01.241Z,2.78
2023-04-04T01:50:30.402Z,2.50
2023-04-04T01:52:58.941Z,2.80
2023-04-04T01:55:30.612Z,2.65
2023-04-04T01:58:00.874Z,2.42
2023-04-04T02:00:29.938Z,2.40
2023-04-04T02:02:57.476Z,2.80
2023-04-04T02:05:26.013Z,2.78
2023-04-04T02:07:53.644Z,2.92
2023-04-04T02:10:32.871Z,2.60
2023-04-04T02:13:03.536Z,2.60
2023-04-04T02:15:32.894Z,2.40
2023-04-04T02:18:02.009Z,2.50
2023-04-04T02:20:30.308Z,2.50
2023-04-04T02:23:01.939Z,2.17
2023-04-04T02:25:30.383Z,2.53
2023-04-04T02:27:57.945Z,2.80
2023-04-04T02:30:28.855Z,2.53
2023-04-04T02:35:26.423Z,2.80
2023-04-04T02:37:54.949Z,2.70
2023-04-04T02:40:32.221Z,2.80
2023-04-04T02:43:01.873Z,2.60
2023-04-04T02:45:31.077Z,2.50
2023-04-04T02:48:14.885Z,2.90
2023-04-04T02:50:49.838Z,2.42
2023-04-04T02:53:19.898Z,3.20
2023-04-04T02:55:51.901Z,2.70
2023-04-04T02:58:20.562Z,3.10
2023-04-04T03:00:56.108Z,2.88
2023-04-04T03:03:29.217Z,2.80
2023-04-04T03:05:57.906Z,2.78
2023-04-04T03:08:25.416Z,3.38
2023-04-04T03:10:53.549Z,2.88
2023-04-04T03:13:21.240Z,2.95
2023-04-04T03:15:49.562Z,2.72
2023-04-04T03:18:19.876Z,2.70
2023-04-04T03:20:47.424Z,2.40
2023-04-04T03:23:20.369Z,2.65
2023-04-04T03:25:47.975Z,3.00
2023-04-04T03:28:18.853Z,2.72
2023-04-04T03:30:47.962Z,2.70
2023-04-04T03:33:16.631Z,2.85
2023-04-04T03:35:46.124Z,2.70
2023-04-04T03:38:14.848Z,2.78
2023-04-04T03:40:44.073Z,2.60
2023-04-04T03:43:14.968Z,2.58
2023-04-04T03:45:44.684Z,2.78
2023-04-04T03:48:12.233Z,2.75
2023-04-04T03:50:41.652Z,2.50
2023-04-04T03:53:12.936Z,2.33
2023-04-04T03:55:42.562Z,2.53
2023-04-04T03:58:11.006Z,2.97
2023-04-04T04:00:39.632Z,2.60
2023-04-04T04:03:08.001Z,2.40
2023-04-04T04:08:29.499Z,3.20
2023-04-04T04:10:57.520Z,2.70
2023-04-04T04:13:25.855Z,2.72
2023-04-04T04:15:55.865Z,3.10
2023-04-04T04:18:24.344Z,2.97
2023-04-04T04:20:58.162Z,2.88
2023-04-04T04:23:27.973Z,2.88
2023-04-04T04:25:57.908Z,2.70
2023-04-04T04:28:33.026Z,3.42
2023-04-04T04:31:07.344Z,2.97
2023-04-04T04:33:41.440Z,2.85
2023-04-04T04:36:11.350Z,3.20
2023-04-04T04:41:53.178Z,3.30
2023-04-04T04:44:22.208Z,3.95
2023-04-04T04:46:50.917Z,3.72
2023-04-04T04:49:19.704Z,3.97
2023-04-04T04:51:49.086Z,3.55
2023-04-04T04:54:18.826Z,3.22
2023-04-04T04:56:48.592Z,3.30
2023-04-04T04:59:17.906Z,3.10
2023-04-04T05:01:46.012Z,3.55
2023-04-04T05:04:17.501Z,3.15
2023-04-04T05:06:59.029Z,3.20
2023-04-04T05:09:27.242Z,3.10
2023-04-04T05:11:56.355Z,3.05
2023-04-04T05:14:37.458Z,3.10
2023-04-04T05:17:07.868Z,3.17
2023-04-04T05:19:36.891Z,3.42
2023-04-04T05:22:05.577Z,3.10
2023-04-04T05:24:43.597Z,3.60
2023-04-04T05:27:15.483Z,3.30
2023-04-04T05:29:49.677Z,3.40
2023-04-04T05:32:19.874Z,3.60
2023-04-04T05:35:01.390Z,4.00
2023-04-04T05:37:34.922Z,4.18
2023-04-04T05:40:03.851Z,3.60
2023-04-04T05:42:31.465Z,3.83
2023-04-04T05:45:02.022Z,4.68
2023-04-04T05:47:31.151Z,3.58
2023-04-04T05:49:58.780Z,3.90
2023-04-04T05:52:27.883Z,4.05
2023-04-04T05:54:55.915Z,4.05
2023-04-04T05:57:29.596Z,4.10
2023-04-04T05:59:59.848Z,4.57
2023-04-04T06:02:30.947Z,4.28
2023-04-04T06:05:03.902Z,4.18
2023-04-04T06:07:34.686Z,3.92
2023-04-04T06:10:02.280Z,3.97
2023-04-04T06:12:32.106Z,4.65
2023-04-04T06:15:05.852Z,4.25
2023-04-04T06:17:42.910Z,3.95
2023-04-04T06:20:14.860Z,4.22
2023-04-04T06:22:44.857Z,3.40
2023-04-04T06:25:14.522Z,3.60
2023-04-04T06:27:42.723Z,3.72
2023-04-04T06:30:12.881Z,3.03
2023-04-04T06:32:44.038Z,3.55
2023-04-04T06:35:20.139Z,3.60
2023-04-04T06:37:56.606Z,3.38
2023-04-04T06:40:26.624Z,3.47
2023-04-04T06:42:58.045Z,3.20
2023-04-04T06:45:33.841Z,3.50
2023-04-04T06:48:03.968Z,3.67
2023-04-04T06:50:36.301Z,3.10
2023-04-04T06:53:12.203Z,3.05
2023-04-04T06:55:39.958Z,3.30
2023-04-04T06:58:09.855Z,3.40
2023-04-04T07:00:37.578Z,3.42
2023-04-04T07:03:06.892Z,3.10
2023-04-04T07:05:39.261Z,3.22
2023-04-04T07:08:06.945Z,3.03
2023-04-04T07:10:34.682Z,2.90
2023-04-04T07:13:06.994Z,3.30
2023-04-04T07:15:34.842Z,3.00
2023-04-04T07:18:07.906Z,2.95
2023-04-04T07:20:37.161Z,3.30
2023-04-04T07:23:04.950Z,2.88
2023-04-04T07:25:32.924Z,2.78
2023-04-04T07:28:09.967Z,3.13
2023-04-04T07:30:42.238Z,2.50
2023-04-04T07:33:11.492Z,2.60
2023-04-04T07:35:39.382Z,2.50
2023-04-04T07:38:08.885Z,2.60
2023-04-04T07:40:36.689Z,2.33
2023-04-04T07:43:04.261Z,2.38
2023-04-04T07:45:31.820Z,2.28
2023-04-04T07:48:02.008Z,2.15
2023-04-04T07:50:31.208Z,2.33
2023-04-04T07:52:59.938Z,2.35
2023-04-04T07:55:27.808Z,2.08
2023-04-04T07:57:59.845Z,2.08
2023-04-04T08:00:29.329Z,2.00
2023-04-04T08:02:59.003Z,1.90
2023-04-04T08:05:26.944Z,2.28
2023-04-04T08:07:58.852Z,1.85
2023-04-04T08:12:55.059Z,2.50
2023-04-04T08:15:22.745Z,2.70
2023-04-04T08:17:51.281Z,2.92
2023-04-04T08:20:19.975Z,2.65
2023-04-04T08:22:48.233Z,2.75
2023-04-04T08:25:17.637Z,2.40
2023-04-04T08:27:45.495Z,2.17
2023-04-04T08:30:14.552Z,2.13
2023-04-04T08:32:42.257Z,2.22
2023-04-04T08:35:10.601Z,2.20
2023-04-04T08:37:39.524Z,2.63
2023-04-04T08:40:08.866Z,2.75
2023-04-04T08:42:41.559Z,3.42
2023-04-04T08:45:11.914Z,3.20
2023-04-04T08:47:40.678Z,2.90
2023-04-04T08:50:09.859Z,2.80
2023-04-04T08:52:43.103Z,2.50
2023-04-04T08:55:12.220Z,2.67
2023-04-04T08:57:41.878Z,2.85
2023-04-04T09:00:11.368Z,3.13
2023-04-04T09:02:47.583Z,2.38
2023-04-04T09:05:15.491Z,2.05
2023-04-04T09:07:44.758Z,2.00
2023-04-04T09:10:13.078Z,1.88
2023-04-04T09:12:45.032Z,2.10
2023-04-04T09:17:41.736Z,1.63
2023-04-04T09:20:35.420Z,2.00
2023-04-04T09:23:07.754Z,2.40
2023-04-04T09:25:37.878Z,1.90
2023-04-04T09:28:07.146Z,1.90
2023-04-04T09:30:36.483Z,2.10
2023-04-04T09:33:06.441Z,2.08
2023-04-04T09:35:36.364Z,2.00
2023-04-04T09:38:04.862Z,1.90
2023-04-04T09:40:34.897Z,1.98
2023-04-04T09:43:03.135Z,2.20
2023-04-04T09:45:34.225Z,1.95
2023-04-04T09:48:02.476Z,1.90
2023-04-04T09:50:30.386Z,1.88
2023-04-04T09:53:00.393Z,2.08
2023-04-04T09:55:39.040Z,1.77
2023-04-04T09:58:14.803Z,1.85
2023-04-04T10:00:48.428Z,1.83
2023-04-04T10:03:17.954Z,1.75
2023-04-04T10:05:46.887Z,1.95
2023-04-04T10:08:16.873Z,1.90
2023-04-04T10:10:55.744Z,1.85
2023-04-04T10:13:32.979Z,2.03
2023-04-04T10:16:03.625Z,1.90
2023-04-04T10:18:34.519Z,1.80
2023-04-04T10:21:14.485Z,2.00
2023-04-04T10:23:46.354Z,2.10
2023-04-04T10:26:14.925Z,2.00
2023-04-04T10:28:44.092Z,2.10
2023-04-04T10:31:21.224Z,1.90
2023-04-04T10:33:57.077Z,1.90
2023-04-04T10:36:28.958Z,1.90
2023-04-04T10:39:06.278Z,2.10
2023-04-04T10:41:36.447Z,2.13
2023-04-04T10:44:14.475Z,2.17
2023-04-04T10:46:47.429Z,2.28
2023-04-04T10:49:16.318Z,1.98
2023-04-04T10:51:55.585Z,1.95
2023-04-04T10:54:25.851Z,1.90
2023-04-04T10:56:54.923Z,2.05
2023-04-04T10:59:25.901Z,2.25
2023-04-04T11:01:58.795Z,2.10
2023-04-04T11:04:35.566Z,2.10
2023-04-04T11:07:14.923Z,2.08
2023-04-04T11:09:53.997Z,1.80
2023-04-04T11:12:27.141Z,2.13
2023-04-04T11:15:07.952Z,2.22
2023-04-04T11:17:43.983Z,2.30
2023-04-04T11:20:15.968Z,1.85
2023-04-04T11:25:30.476Z,1.67
2023-04-04T11:27:59.144Z,2.33
2023-04-04T11:30:28.869Z,2.22
2023-04-04T11:33:07.494Z,2.55
2023-04-04T11:35:39.836Z,2.33
2023-04-04T11:40:44.002Z,2.30
2023-04-04T11:43:13.346Z,2.28
2023-04-04T11:45:45.520Z,2.15
2023-04-04T11:48:16.880Z,2.00
2023-04-04T11:50:49.413Z,2.20
2023-04-04T11:53:17.558Z,2.30
2023-04-04T11:55:51.417Z,2.40
2023-04-04T11:58:20.306Z,2.20
2023-04-04T12:00:48.023Z,2.30
2023-04-04T12:03:19.994Z,2.42
2023-04-04T12:05:48.717Z,2.50
2023-04-04T12:08:17.863Z,2.42
2023-04-04T12:10:45.999Z,2.47
2023-04-04T12:13:14.258Z,2.10
2023-04-04T12:15:44.333Z,2.08
2023-04-04T12:18:23.483Z,2.00
2023-04-04T12:20:53.046Z,2.10
2023-04-04T12:23:20.981Z,2.42
2023-04-04T12:25:54.120Z,2.10
2023-04-04T12:28:22.370Z,2.33
2023-04-04T12:30:51.225Z,2.33
2023-04-04T12:33:19.043Z,2.33
2023-04-04T12:35:54.586Z,2.38
2023-04-04T12:38:22.289Z,2.38
2023-04-04T12:40:52.410Z,2.13
2023-04-04T12:43:20.945Z,2.22
2023-04-04T12:45:51.968Z,2.20
2023-04-04T12:48:21.187Z,2.33
2023-04-04T12:50:54.975Z,2.60
2023-04-04T12:53:29.354Z,2.20
2023-04-04T12:56:02.446Z,2.10
2023-04-04T12:58:30.200Z,2.22
2023-04-04T13:01:02.521Z,2.28
2023-04-04T13:06:00.841Z,2.40
2023-04-04T13:08:28.662Z,2.40
2023-04-04T13:11:05.445Z,2.42
2023-04-04T13:13:35.218Z,2.40
2023-04-04T13:16:03.894Z,2.40
2023-04-04T13:18:37.400Z,2.30
2023-04-04T13:21:08.352Z,2.42
2023-04-04T13:23:41.888Z,2.28
2023-04-04T13:26:11.910Z,2.60
2023-04-04T13:28:39.732Z,2.45
2023-04-04T13:31:08.532Z,2.50
2023-04-04T13:33:36.943Z,2.40
2023-04-04T13:36:08.035Z,2.28
2023-04-04T13:38:37.433Z,2.45
2023-04-04T13:41:06.503Z,2.50
2023-04-04T13:43:34.873Z,2.88
2023-04-04T13:46:02.530Z,2.67
2023-04-04T13:48:31.105Z,2.30
2023-04-04T13:50:58.901Z,2.40
2023-04-04T13:53:27.979Z,2.22
2023-04-04T13:58:26.946Z,2.72
2023-04-04T14:00:56.152Z,2.35
2023-04-04T14:03:24.476Z,2.97
2023-04-04T14:05:52.916Z,2.45
2023-04-04T14:08:20.470Z,2.70
2023-04-04T14:10:49.684Z,2.97
2023-04-04T14:13:19.744Z,2.40
2023-04-04T14:15:49.031Z,2.53
2023-04-04T14:18:16.687Z,2.15
2023-04-04T14:20:44.300Z,2.17
2023-04-04T14:23:12.480Z,2.50
2023-04-04T14:25:40.201Z,2.33
2023-04-04T14:28:09.970Z,2.13
2023-04-04T14:30:37.526Z,2.17
2023-04-04T14:33:05.162Z,2.40
2023-04-04T14:35:32.704Z,2.30
2023-04-04T14:38:00.467Z,2.45
2023-04-04T14:40:29.072Z,2.53
2023-04-04T14:42:56.580Z,2.17
2023-04-04T14:45:25.830Z,2.13
2023-04-04T14:47:53.430Z,2.00
2023-04-04T14:50:21.706Z,2.17
2023-04-04T14:52:52.491Z,2.40
2023-04-04T14:55:20.825Z,1.95
2023-04-04T14:58:01.405Z,2.20
2023-04-04T15:02:59.607Z,2.50
2023-04-04T15:05:28.161Z,2.72
2023-04-04T15:07:56.479Z,2.47
2023-04-04T15:10:24.197Z,2.50
2023-04-04T15:12:52.421Z,2.30
2023-04-04T15:15:22.388Z,2.30
2023-04-04T15:17:54.025Z,2.38
2023-04-04T15:20:21.592Z,2.17
2023-04-04T15:22:49.139Z,2.60
2023-04-04T15:25:17.417Z,2.50
2023-04-04T15:27:46.851Z,2.50
2023-04-04T15:30:15.452Z,2.30
2023-04-04T15:32:43.055Z,2.53
2023-04-04T15:35:18.900Z,2.25
2023-04-04T15:37:46.652Z,2.63
2023-04-04T15:40:15.805Z,2.60
2023-04-04T15:42:45.800Z,2.65
2023-04-04T15:45:14.910Z,2.60
2023-04-04T15:47:42.621Z,2.70
2023-04-04T15:50:12.876Z,2.40
2023-04-04T15:52:41.916Z,2.85
2023-04-04T15:55:12.514Z,3.10
2023-04-04T15:57:40.332Z,2.50
2023-04-04T16:00:10.879Z,2.55
2023-04-04T16:02:38.503Z,2.60
2023-04-04T16:05:06.943Z,2.72
2023-04-04T16:07:37.841Z,2.72
2023-04-04T16:10:07.607Z,2.53
2023-04-04T16:12:35.869Z,2.80
2023-04-04T16:15:03.439Z,2.90
2023-04-04T16:17:33.237Z,2.90
2023-04-04T16:20:01.055Z,2.75
2023-04-04T16:22:28.604Z,2.67
2023-04-04T16:24:58.880Z,2.80
2023-04-04T16:27:27.033Z,2.75
2023-04-04T16:29:54.884Z,2.75
2023-04-04T16:32:23.445Z,2.70
2023-04-04T16:34:51.022Z,2.70
2023-04-04T16:37:18.627Z,2.70
2023-04-04T16:39:48.094Z,2.67
2023-04-04T16:42:19.259Z,2.92
2023-04-04T16:44:48.963Z,2.90
2023-04-04T16:47:18.269Z,2.70
2023-04-04T16:49:47.855Z,2.80
2023-04-04T16:52:16.519Z,2.85
2023-04-04T16:54:45.018Z,3.10
2023-04-04T16:57:19.016Z,2.50
2023-04-04T16:59:46.648Z,2.95
2023-04-04T17:02:15.348Z,2.80
2023-04-04T17:04:45.084Z,2.95
2023-04-04T17:07:13.287Z,2.70
2023-04-04T17:09:40.787Z,2.92
2023-04-04T17:12:08.419Z,2.85
2023-04-04T17:14:37.414Z,2.72
2023-04-04T17:17:05.969Z,2.72
2023-04-04T17:19:35.008Z,3.10
2023-04-04T17:22:03.224Z,2.85
2023-04-04T17:24:30.935Z,3.03
2023-04-04T17:26:59.004Z,3.22
2023-04-04T17:29:32.008Z,3.22
2023-04-04T17:32:01.426Z,3.00
2023-04-04T17:34:28.969Z,3.05
2023-04-04T17:36:59.976Z,3.30
2023-04-04T17:39:27.970Z,2.90
2023-04-04T17:41:56.858Z,3.35
2023-04-04T17:44:25.872Z,3.55
2023-04-04T17:46:55.322Z,3.05
2023-04-04T17:49:24.605Z,3.13
2023-04-04T17:51:53.394Z,3.00
2023-04-04T17:54:23.027Z,2.83
2023-04-04T17:56:50.870Z,2.92
2023-04-04T17:59:22.105Z,3.10
2023-04-04T18:01:49.948Z,2.70
2023-04-04T18:04:17.678Z,3.00
2023-04-04T18:06:46.589Z,3.08
2023-04-04T18:09:14.131Z,3.25
2023-04-04T18:11:46.750Z,3.10
2023-04-04T18:14:14.318Z,3.30
2023-04-04T18:16:42.062Z,2.80
2023-04-04T18:19:10.252Z,3.20
2023-04-04T18:21:39.003Z,3.10
2023-04-04T18:24:11.164Z,2.83
2023-04-04T18:26:39.424Z,3.20
2023-04-04T18:29:07.173Z,3.22
2023-04-04T18:31:35.046Z,3.10
2023-04-04T18:34:31.514Z,3.15
2023-04-04T18:36:59.079Z,3.40
2023-04-04T18:39:28.948Z,3.22
2023-04-04T18:41:56.678Z,3.30
2023-04-04T18:44:24.471Z,3.03
2023-04-04T18:46:52.326Z,3.30
2023-04-04T18:49:19.900Z,2.97
2023-04-04T18:51:47.941Z,3.15
2023-04-04T18:54:15.514Z,3.00
2023-04-04T18:56:44.907Z,3.10
2023-04-04T18:59:12.467Z,3.30
2023-04-04T19:01:41.460Z,3.13
2023-04-04T19:04:09.395Z,3.20
2023-04-04T19:06:37.322Z,3.00
2023-04-04T19:09:05.270Z,2.85
2023-04-04T19:11:32.946Z,3.30
2023-04-04T19:14:01.786Z,3.13
2023-04-04T19:16:29.455Z,2.90
2023-04-04T19:18:57.100Z,3.20
2023-04-04T19:21:24.955Z,3.22
2023-04-04T19:23:53.911Z,2.72
2023-04-04T19:26:21.713Z,2.92
2023-04-04T19:28:50.902Z,2.88
2023-04-04T19:31:22.260Z,2.97
2023-04-04T19:36:20.347Z,2.88
2023-04-04T19:38:49.240Z,3.45
2023-04-04T19:41:33.758Z,2.92
2023-04-04T19:44:01.623Z,3.08
2023-04-04T19:46:32.878Z,3.13
2023-04-04T19:49:01.896Z,3.28
2023-04-04T19:51:51.507Z,2.95
2023-04-04T19:54:25.686Z,3.78
2023-04-04T19:56:59.207Z,3.25
2023-04-04T19:59:51.463Z,3.38
2023-04-04T20:02:57.774Z,3.08
2023-04-04T20:05:55.503Z,3.22
2023-04-04T20:08:23.899Z,3.50
2023-04-04T20:10:54.762Z,3.50
2023-04-04T20:13:22.350Z,3.65
2023-04-04T20:16:02.056Z,3.65
2023-04-04T20:18:33.039Z,3.80
2023-04-04T20:21:03.720Z,3.65
2023-04-04T20:23:38.712Z,3.60
2023-04-04T20:26:07.907Z,3.33
2023-04-04T20:28:37.125Z,3.83
2023-04-04T20:31:09.445Z,3.75
2023-04-04T20:33:41.416Z,4.13
2023-04-04T20:36:14.004Z,4.30
2023-04-04T20:38:43.868Z,4.50
2023-04-04T20:41:17.134Z,4.35
2023-04-04T20:43:51.904Z,4.40
2023-04-04T20:46:20.855Z,4.28
2023-04-04T20:48:51.938Z,4.20
2023-04-04T20:51:25.673Z,4.35
2023-04-04T20:53:54.559Z,3.58
2023-04-04T20:56:44.805Z,4.35
2023-04-04T20:59:36.319Z,4.00
2023-04-04T21:02:15.608Z,3.85
2023-04-04T21:04:48.052Z,3.75
2023-04-04T21:07:36.570Z,3.78
2023-04-04T21:10:22.386Z,3.95
2023-04-04T21:12:50.321Z,3.72
2023-04-04T21:15:22.173Z,3.72
2023-04-04T21:17:50.273Z,3.58
2023-04-04T21:20:58.189Z,3.28
2023-04-04T21:23:33.001Z,3.65
2023-04-04T21:26:03.907Z,3.47
2023-04-04T21:28:33.478Z,3.28
2023-04-04T21:31:09.900Z,3.13
2023-04-04T21:33:38.024Z,3.40
2023-04-04T21:36:13.928Z,3.30
2023-04-04T21:38:41.712Z,3.80
2023-04-04T21:41:23.509Z,3.55
2023-04-04T21:43:51.352Z,3.35
2023-04-04T21:46:19.358Z,3.28
2023-04-04T21:48:46.884Z,3.40
2023-04-04T21:51:15.769Z,3.30
2023-04-04T21:53:43.520Z,3.40
2023-04-04T21:56:11.331Z,3.40
2023-04-04T21:58:39.906Z,3.53
2023-04-04T22:01:07.897Z,3.00
2023-04-04T22:03:38.098Z,2.95
2023-04-04T22:06:07.209Z,2.80
2023-04-04T22:08:36.060Z,2.90
2023-04-04T22:11:05.772Z,3.08
2023-04-04T22:13:33.927Z,2.90
2023-04-04T22:16:04.356Z,3.25
2023-04-04T22:18:34.045Z,3.35
2023-04-04T22:21:04.449Z,3.30
2023-04-04T22:23:35.454Z,3.35
2023-04-04T22:26:06.141Z,3.15
2023-04-04T22:28:34.452Z,3.50
2023-04-04T22:31:02.803Z,3.00
2023-04-04T22:33:30.970Z,2.90
2023-04-04T22:35:59.036Z,3.50
2023-04-04T22:38:27.863Z,3.35
2023-04-04T22:40:57.894Z,3.20
2023-04-04T22:43:28.928Z,3.00
2023-04-04T22:45:56.522Z,3.33
2023-04-04T22:48:24.373Z,3.50
2023-04-04T22:50:55.996Z,2.95
2023-04-04T22:53:25.223Z,3.40
2023-04-04T22:55:53.780Z,3.35
2023-04-04T22:58:22.116Z,3.25
2023-04-04T23:00:51.095Z,3.40
2023-04-04T23:03:18.672Z,3.47
2023-04-04T23:05:46.169Z,3.22
2023-04-04T23:08:13.901Z,3.30
2023-04-04T23:10:41.588Z,2.97
2023-04-04T23:13:09.367Z,3.67
2023-04-04T23:15:37.750Z,3.28
2023-04-04T23:18:06.974Z,3.40
2023-04-04T23:20:35.114Z,3.15
2023-04-04T23:23:02.708Z,3.60
2023-04-04T23:25:30.349Z,3.45
2023-04-04T23:27:57.914Z,3.15
2023-04-04T23:30:28.911Z,3.47
2023-04-04T23:32:56.464Z,3.33
2023-04-04T23:35:25.907Z,3.40
2023-04-04T23:37:53.601Z,3.22
2023-04-04T23:40:21.259Z,2.88
2023-04-04T23:42:49.911Z,3.25
2023-04-04T23:45:17.636Z,2.97
2023-04-04T23:47:45.732Z,3.20
2023-04-04T23:50:13.881Z,3.88
2023-04-04T23:52:43.670Z,3.75
2023-04-04T23:55:11.437Z,3.17
2023-04-04T23:57:38.944Z,3.72
